Portada
METAR-TAF:

METAR-TAF

Aeroports :

Lydd, Anglaterra

latitud: 50-57N, longitud: 000-56E, altitud: 3 m

Observació

L'informe es va fer fa 32 minuts, a les 10:20 UTC
Vent 17 kt del Nord-Est
Temperatura 10°C
Humitat 82%
Pressió 1021 hPa
Visibilitat: 9000 m
Núvols disperses a una alçada de 800 ft
Cel ennuvolat a una alçada de 1300 ft

METAR: EGMD 211020Z 04017KT 9000 SCT008 BKN013 10/07 Q1021

Hora: 11:52 (10:52 UTC)

Pronòstic

L'informe es va fer fa 17 minuts, a les 10:35 UTC
Pronòstic vàlid del 21 a les 10 UTC al 21 a les 18 UTC
Vent 16 kt del Nord-Est
Visibilitat: 8000 m
Núvols disperses a una alçada de 2000 ft
Evolucionant progressivament
l' 21 a les 10 UTC al 21 a les 12 UTC
Visibilitat 10 km o més
Probabilitat 40% :
Temporalment
l' 21 a les 10 UTC al 21 a les 13 UTC
Cel ennuvolat a una alçada de 800 ft

TAF: EGMD 211035Z 2110/2118 04016KT 8000 SCT020 BECMG 2110/2112 9999 PROB40 TEMPO 2110/2113 BKN008

Observacions i pronòstics meteorològics de més de 4000 aeroports (METAR i TAF).

Les estacions disponibles són els punts grocs i vermells al mapa.

Posi el ratolí al punt desitjat per veure el nom de l'estació.

Feu clic per veure les observacions i els pronòstics meteorològics.

Per canviar el mapa: feu clic els botons verds amb una creu de color negre per apropar; al botó verd amb un guió per allunyar la imatge; o en les fletxes verdes per a mapes adjacents.


METAR-TAF: